Latest  Newer  Older  Last 2 hours slideshow  Last 24 hours slideshow  Refresh every 5 minutes 
Current image  Latest image  Rain/snow radar  Cloud coverage sat images 

All time is UTC (add 2 hours to UTC in wintertime, 3 hours to UTC in DST for Latvia local time)

2021/04/21 17:20 EVRA 211720Z 34002KT CAVOK 09/M01 Q1003 NOSIG
2021/04/21 17:20 EVLA 211720Z AUTO 22010KT 9999 SCT068/// 07/05 Q1005
2021/04/21 17:20 EVVA 211720Z AUTO 20012KT CAVOK 07/05 Q1003
2021/04/21 17:20 EYKA 211720Z 28008KT 250V310 CAVOK 13/M01 Q1006
2021/04/21 17:20 EYPA 211720Z AUTO 24004KT 180V310 9999 BKN061/// 07/05 Q1006
2021/04/21 17:20 EYSA 211720Z 25013KT CAVOK 12/M01 Q1005 BLU NOSIG
2021/04/21 17:20 EYVI 211720Z 26007KT CAVOK 13/M03 Q1006 NOSIG
2021/04/21 15:20 EEKA 211520Z 34005KT CAVOK 08/03 Q1002
2021/04/21 17:20 EEKE 211720Z AUTO 24005KT 200V310 9999NDV NSC 07/00 Q1003

2021/04/21 17:20 EETN 211720Z 30005KT CAVOK 11/M00 Q1001 NOSIG
2021/04/21 17:20 EETU 211720Z AUTO 16005KT 9999 BKN061/// 09/06 Q1001
   RIGA AIRPORT     EVRA               56 55N  023 58E   10   X     T          6 LV
   LIEPAJA INTL     EVLA        26406  56 31N  021 06E    4   X                8 LV
   VENTPILS         EVVA               57 21N  021 33E    6   X                8 LV
   KAUNAS           EYKA               54 54N  023 55E   77   X     T          6 LT
   PALANGA INTL     EYPA               55 55N  021 03E   10   X                6 LT
   SIAULIAI INTL    EYSA               55 54N  023 24E  135   X     T          6 LT
   VILNIUS INTL     EYVI        26730  54 38N  025 17E  197   X     T          6 LT
   KARDLA           EEKA        26116  58 59N  022 50E    4   X                8 EE
   KURESSAARE       EEKE               58 14N  022 31E    4   X                8 EE
   PARNU            EEPU               58 25N  024 28E   14   X                8 EE
   TALLINN          EETN        26038  59 24N  024 49E   40   X     T          8 EE
   TARTU            EETU               58 19N  026 41E   67   X                8 EE